Selawik, AK

10:24 AM AKDT on April 25, 2015 (GMT -0800)
RAWS | | Change Station
CLOSE
Current Station
Personal Weather Station
Location: Selawik, AK
Elevation: 104 ft
Nearby Weather Stations

Elev 104 ft 66.61 °N, 159.09 °W | Updated 35 minutes ago

Clear
Clear
30 °F
Feels Like 23 °F
N
7
Wind Variable Wind from NE
Gusts 14.0 mph

Today
High -- | Low -- °F
--% Chance of Precip.
Yesterday
High -- | Low -- °F
Precip. -- in
6:16 AM 11:02 PM
Waxing Crescent, 48% visible
Pressure 30.02 in
Visibility 10.0 miles
Clouds Clear
Windchill 23 °F
Dew Point 20 °F
Humidity 66%
Rainfall in
Snow Depth Not available.
UV 1 out of 12
Pollen Not available.
Air Quality Not available.
Flu Activity Sporadic
METAR PAIK 251801Z AUTO 35005KT 10SM CLR M01/M07 A2989 RMK AO2 SLP165 T10061072 11006 21044 53006 FZRANO

More Conditions Fewer Conditions

Pressure 30.02 in
Visibility 10.0 miles
Clouds Clear
Windchill 23 °F
Dew Point 20 °F
Humidity 66%
Rainfall in
Snow Depth Not available.
UV 1 out of 12
Pollen Not available.
Air Quality Not available.
Flu Activity Sporadic
METAR PAIK 251801Z AUTO 35005KT 10SM CLR M01/M07 A2989 RMK AO2 SLP165 T10061072 11006 21044 53006 FZRANO

More Conditions Fewer Conditions

10-Day Weather Forecast

Almanac

Astronomy

Apr. 25, 2015 Rise Set
Actual Time
Civil Twilight
Nautical Twilight
Astronomical Twilight
Moon
Length of Visible Light
Length of Day
Tomorrow will be .
, % of the Moon is Illuminated

Today's Extremes

State Highs State Lows

Community

WunderPhotos

Upload Photos

1,816,765 photos uploaded!

WunderBlogs® & News

Nearby

Air Quality

  Air Quality AQ Index Pollutant
Not available.

Snow Depth

Station Depth Elevation

Earthquake Activity

City Distance Mag. Time & Date
Minimum magnitude displayed is 2.5.

Coastal Water Temperatures

Place Temperature

Stations

Nearby Weather Stations

Station Location Temp. Windchill Dew Point Humidity Wind Precip. Elev Updated Type